Portada
METAR-TAF:

METAR-TAF

Aeroports :

Langkawi, Malàisia

latitud: 06-20N, longitud: 099-44E, altitud: 8 m

Observació

L'informe es va fer fa 44 minuts, a les 01:00 UTC
Vent 3 kt amb direcció variable
Temperatura 30°C
Humitat 70%
Pressió 1011 hPa
Visibilitat 10 km o més
Escasses núvols a una alçada de 2200 ft

METAR: WMKL 300100Z VRB03KT 9999 FEW022 30/24 Q1011

Hora: 09:44 (01:44 UTC)

Pronòstic

L'informe es va fer fa 2 hores i 44 minuts, a les 23:00 UTC
Pronòstic vàlid del 30 a les 00 UTC al 31 a les 00 UTC
Vent 3 kt amb direcció variable
Visibilitat 10 km o més
Escasses núvols a una alçada de 2000 ft
Evolucionant progressivament
l' 30 a les 03 UTC al 30 a les 05 UTC
Vent 8 kt del Oest/Sud-Oest
Evolucionant progressivament
l' 30 a les 10 UTC al 30 a les 12 UTC
Vent 3 kt amb direcció variable
Escasses núvols a una alçada de 2600 ft

TAF: WMKL 292300Z 3000/3100 VRB03KT 9999 FEW020 BECMG 3003/3005 25008KT BECMG 3010/3012 VRB03KT FEW026

Observacions i pronòstics meteorològics de més de 4000 aeroports (METAR i TAF).

Les estacions disponibles són els punts grocs i vermells al mapa.

Posi el ratolí al punt desitjat per veure el nom de l'estació.

Feu clic per veure les observacions i els pronòstics meteorològics.

Per canviar el mapa: feu clic els botons verds amb una creu de color negre per apropar; al botó verd amb un guió per allunyar la imatge; o en les fletxes verdes per a mapes adjacents.


METAR-TAF: